sensor_id;sensor_type;location;lat;lon;timestamp;P1;durP1;ratioP1;P2;durP2;ratioP2
84260;SDS011;74405;44.868;18.808;2024-03-08T00:01:35;66.72;;;34.13;;
84260;SDS011;74405;44.868;18.808;2024-03-08T00:04:01;69.50;;;35.55;;
84260;SDS011;74405;44.868;18.808;2024-03-08T00:06:26;65.43;;;35.00;;
84260;SDS011;74405;44.868;18.808;2024-03-08T00:08:52;77.35;;;38.20;;
84260;SDS011;74405;44.868;18.808;2024-03-08T00:11:18;66.97;;;34.55;;
84260;SDS011;74405;44.868;18.808;2024-03-08T00:13:43;61.65;;;32.95;;
84260;SDS011;74405;44.868;18.808;2024-03-08T00:16:10;67.43;;;33.25;;
84260;SDS011;74405;44.868;18.808;2024-03-08T00:18:35;58.55;;;31.45;;
84260;SDS011;74405;44.868;18.808;2024-03-08T00:21:01;64.22;;;32.67;;
84260;SDS011;74405;44.868;18.808;2024-03-08T00:23:26;62.92;;;31.67;;
84260;SDS011;74405;44.868;18.808;2024-03-08T00:25:53;58.88;;;30.80;;
84260;SDS011;74405;44.868;18.808;2024-03-08T00:28:20;58.03;;;29.27;;
84260;SDS011;74405;44.868;18.808;2024-03-08T00:30:45;61.78;;;32.03;;
84260;SDS011;74405;44.868;18.808;2024-03-08T00:33:11;61.75;;;31.88;;
84260;SDS011;74405;44.868;18.808;2024-03-08T00:35:37;58.08;;;29.15;;
84260;SDS011;74405;44.868;18.808;2024-03-08T00:38:02;34.15;;;19.73;;
84260;SDS011;74405;44.868;18.808;2024-03-08T00:40:28;45.97;;;26.25;;
84260;SDS011;74405;44.868;18.808;2024-03-08T00:42:54;48.08;;;27.60;;
84260;SDS011;74405;44.868;18.808;2024-03-08T00:45:19;39.22;;;23.48;;
84260;SDS011;74405;44.868;18.808;2024-03-08T00:47:45;39.00;;;20.75;;
84260;SDS011;74405;44.868;18.808;2024-03-08T00:50:10;39.58;;;21.73;;
84260;SDS011;74405;44.868;18.808;2024-03-08T00:52:36;31.90;;;21.00;;
84260;SDS011;74405;44.868;18.808;2024-03-08T00:55:02;37.47;;;21.63;;
84260;SDS011;74405;44.868;18.808;2024-03-08T00:57:27;38.42;;;21.30;;
84260;SDS011;74405;44.868;18.808;2024-03-08T00:59:53;35.42;;;21.63;;
84260;SDS011;74405;44.868;18.808;2024-03-08T01:02:18;31.50;;;19.70;;
84260;SDS011;74405;44.868;18.808;2024-03-08T01:04:44;28.83;;;18.75;;
84260;SDS011;74405;44.868;18.808;2024-03-08T01:07:10;30.27;;;18.33;;
84260;SDS011;74405;44.868;18.808;2024-03-08T01:09:35;33.10;;;20.08;;
84260;SDS011;74405;44.868;18.808;2024-03-08T01:12:01;29.80;;;20.08;;
84260;SDS011;74405;44.868;18.808;2024-03-08T01:14:26;33.83;;;19.23;;
84260;SDS011;74405;44.868;18.808;2024-03-08T01:16:52;30.13;;;18.30;;
84260;SDS011;74405;44.868;18.808;2024-03-08T01:19:17;26.90;;;17.48;;
84260;SDS011;74405;44.868;18.808;2024-03-08T01:21:43;27.75;;;17.10;;
84260;SDS011;74405;44.868;18.808;2024-03-08T01:24:09;32.05;;;19.23;;
84260;SDS011;74405;44.868;18.808;2024-03-08T01:26:34;32.13;;;18.10;;
84260;SDS011;74405;44.868;18.808;2024-03-08T01:29:00;39.08;;;21.38;;
84260;SDS011;74405;44.868;18.808;2024-03-08T01:31:28;38.13;;;22.17;;
84260;SDS011;74405;44.868;18.808;2024-03-08T01:33:54;43.15;;;23.83;;
84260;SDS011;74405;44.868;18.808;2024-03-08T01:36:19;48.25;;;27.00;;
84260;SDS011;74405;44.868;18.808;2024-03-08T01:38:45;53.78;;;28.00;;
84260;SDS011;74405;44.868;18.808;2024-03-08T01:41:10;49.70;;;26.75;;
84260;SDS011;74405;44.868;18.808;2024-03-08T01:43:37;50.90;;;27.38;;
84260;SDS011;74405;44.868;18.808;2024-03-08T01:46:03;49.17;;;27.67;;
84260;SDS011;74405;44.868;18.808;2024-03-08T01:48:30;47.08;;;26.73;;
84260;SDS011;74405;44.868;18.808;2024-03-08T01:50:56;43.50;;;23.73;;
84260;SDS011;74405;44.868;18.808;2024-03-08T01:53:22;40.92;;;23.67;;
84260;SDS011;74405;44.868;18.808;2024-03-08T01:55:48;42.78;;;22.83;;
84260;SDS011;74405;44.868;18.808;2024-03-08T01:58:14;39.17;;;23.30;;
84260;SDS011;74405;44.868;18.808;2024-03-08T02:00:43;35.05;;;21.65;;
84260;SDS011;74405;44.868;18.808;2024-03-08T02:03:09;36.78;;;21.73;;
84260;SDS011;74405;44.868;18.808;2024-03-08T02:05:40;40.92;;;24.60;;
84260;SDS011;74405;44.868;18.808;2024-03-08T02:08:06;40.35;;;22.38;;
84260;SDS011;74405;44.868;18.808;2024-03-08T02:10:43;41.78;;;24.90;;
84260;SDS011;74405;44.868;18.808;2024-03-08T02:13:09;39.63;;;23.48;;
84260;SDS011;74405;44.868;18.808;2024-03-08T02:18:15;39.50;;;23.30;;
84260;SDS011;74405;44.868;18.808;2024-03-08T02:20:42;40.20;;;23.25;;
84260;SDS011;74405;44.868;18.808;2024-03-08T02:23:07;46.53;;;24.75;;
84260;SDS011;74405;44.868;18.808;2024-03-08T02:25:35;42.97;;;23.67;;
84260;SDS011;74405;44.868;18.808;2024-03-08T02:28:00;43.10;;;25.30;;
84260;SDS011;74405;44.868;18.808;2024-03-08T02:30:26;37.65;;;22.73;;
84260;SDS011;74405;44.868;18.808;2024-03-08T02:32:55;35.53;;;20.25;;
84260;SDS011;74405;44.868;18.808;2024-03-08T02:35:20;34.90;;;20.27;;
84260;SDS011;74405;44.868;18.808;2024-03-08T02:37:46;37.17;;;21.15;;
84260;SDS011;74405;44.868;18.808;2024-03-08T02:40:13;32.95;;;20.08;;
84260;SDS011;74405;44.868;18.808;2024-03-08T02:42:38;32.20;;;19.92;;
84260;SDS011;74405;44.868;18.808;2024-03-08T02:45:04;32.50;;;20.55;;
84260;SDS011;74405;44.868;18.808;2024-03-08T02:47:31;36.72;;;20.85;;
84260;SDS011;74405;44.868;18.808;2024-03-08T02:49:56;30.33;;;20.27;;
84260;SDS011;74405;44.868;18.808;2024-03-08T02:52:22;32.60;;;18.95;;
84260;SDS011;74405;44.868;18.808;2024-03-08T02:54:47;34.38;;;20.60;;
84260;SDS011;74405;44.868;18.808;2024-03-08T02:57:13;37.33;;;22.25;;
84260;SDS011;74405;44.868;18.808;2024-03-08T02:59:39;35.53;;;21.95;;
84260;SDS011;74405;44.868;18.808;2024-03-08T03:02:05;35.95;;;21.60;;
84260;SDS011;74405;44.868;18.808;2024-03-08T03:04:32;34.33;;;21.90;;
84260;SDS011;74405;44.868;18.808;2024-03-08T03:07:00;35.90;;;21.90;;
84260;SDS011;74405;44.868;18.808;2024-03-08T03:09:25;35.38;;;20.23;;
84260;SDS011;74405;44.868;18.808;2024-03-08T03:11:53;35.70;;;20.65;;
84260;SDS011;74405;44.868;18.808;2024-03-08T03:14:20;30.13;;;19.73;;
84260;SDS011;74405;44.868;18.808;2024-03-08T03:16:46;33.50;;;20.25;;
84260;SDS011;74405;44.868;18.808;2024-03-08T03:19:11;28.55;;;19.95;;
84260;SDS011;74405;44.868;18.808;2024-03-08T03:21:37;31.50;;;21.92;;
84260;SDS011;74405;44.868;18.808;2024-03-08T03:24:03;30.48;;;18.27;;
84260;SDS011;74405;44.868;18.808;2024-03-08T03:26:29;33.95;;;19.55;;
84260;SDS011;74405;44.868;18.808;2024-03-08T03:28:56;35.15;;;20.55;;
84260;SDS011;74405;44.868;18.808;2024-03-08T03:31:22;32.42;;;19.13;;
84260;SDS011;74405;44.868;18.808;2024-03-08T03:33:49;29.15;;;18.38;;
84260;SDS011;74405;44.868;18.808;2024-03-08T03:36:17;30.67;;;18.73;;
84260;SDS011;74405;44.868;18.808;2024-03-08T03:38:43;29.42;;;19.95;;
84260;SDS011;74405;44.868;18.808;2024-03-08T03:41:08;31.25;;;20.00;;
84260;SDS011;74405;44.868;18.808;2024-03-08T03:43:37;31.90;;;19.80;;
84260;SDS011;74405;44.868;18.808;2024-03-08T03:46:06;30.90;;;20.05;;
84260;SDS011;74405;44.868;18.808;2024-03-08T03:48:32;30.23;;;18.95;;
84260;SDS011;74405;44.868;18.808;2024-03-08T03:50:57;28.45;;;18.38;;
84260;SDS011;74405;44.868;18.808;2024-03-08T03:53:23;31.90;;;18.85;;
84260;SDS011;74405;44.868;18.808;2024-03-08T03:55:51;33.47;;;19.73;;
84260;SDS011;74405;44.868;18.808;2024-03-08T03:58:16;33.80;;;20.38;;
84260;SDS011;74405;44.868;18.808;2024-03-08T04:00:47;39.15;;;23.13;;
84260;SDS011;74405;44.868;18.808;2024-03-08T04:03:13;34.40;;;23.98;;
84260;SDS011;74405;44.868;18.808;2024-03-08T04:05:38;40.20;;;26.42;;
84260;SDS011;74405;44.868;18.808;2024-03-08T04:08:04;47.08;;;28.27;;
84260;SDS011;74405;44.868;18.808;2024-03-08T04:10:30;40.28;;;24.08;;
84260;SDS011;74405;44.868;18.808;2024-03-08T04:12:55;33.15;;;20.25;;
84260;SDS011;74405;44.868;18.808;2024-03-08T04:15:22;31.55;;;20.02;;
84260;SDS011;74405;44.868;18.808;2024-03-08T04:17:48;31.38;;;20.55;;
84260;SDS011;74405;44.868;18.808;2024-03-08T04:20:13;30.77;;;19.50;;
84260;SDS011;74405;44.868;18.808;2024-03-08T04:22:39;34.58;;;20.48;;
84260;SDS011;74405;44.868;18.808;2024-03-08T04:25:05;28.92;;;18.17;;
84260;SDS011;74405;44.868;18.808;2024-03-08T04:27:35;31.98;;;18.88;;
84260;SDS011;74405;44.868;18.808;2024-03-08T04:30:01;31.52;;;19.73;;
84260;SDS011;74405;44.868;18.808;2024-03-08T04:32:27;31.50;;;19.55;;
84260;SDS011;74405;44.868;18.808;2024-03-08T04:34:54;28.20;;;18.77;;
84260;SDS011;74405;44.868;18.808;2024-03-08T04:37:20;33.08;;;20.63;;
84260;SDS011;74405;44.868;18.808;2024-03-08T04:39:47;31.58;;;20.45;;
84260;SDS011;74405;44.868;18.808;2024-03-08T04:42:13;32.47;;;19.65;;
84260;SDS011;74405;44.868;18.808;2024-03-08T04:44:39;35.85;;;20.70;;
84260;SDS011;74405;44.868;18.808;2024-03-08T04:47:04;39.75;;;22.05;;
84260;SDS011;74405;44.868;18.808;2024-03-08T04:49:31;36.58;;;22.35;;
84260;SDS011;74405;44.868;18.808;2024-03-08T04:51:57;30.42;;;20.35;;
84260;SDS011;74405;44.868;18.808;2024-03-08T04:54:22;33.10;;;20.95;;
84260;SDS011;74405;44.868;18.808;2024-03-08T04:56:48;46.95;;;24.88;;
84260;SDS011;74405;44.868;18.808;2024-03-08T04:59:13;50.00;;;28.77;;
84260;SDS011;74405;44.868;18.808;2024-03-08T05:01:39;52.83;;;29.35;;
84260;SDS011;74405;44.868;18.808;2024-03-08T05:04:04;56.40;;;31.63;;
84260;SDS011;74405;44.868;18.808;2024-03-08T05:06:30;46.30;;;25.80;;
84260;SDS011;74405;44.868;18.808;2024-03-08T05:08:56;48.58;;;27.63;;
84260;SDS011;74405;44.868;18.808;2024-03-08T05:11:21;36.10;;;21.73;;
84260;SDS011;74405;44.868;18.808;2024-03-08T05:13:47;36.30;;;21.83;;
84260;SDS011;74405;44.868;18.808;2024-03-08T05:16:12;34.85;;;21.42;;
84260;SDS011;74405;44.868;18.808;2024-03-08T05:18:40;37.85;;;21.95;;
84260;SDS011;74405;44.868;18.808;2024-03-08T05:21:07;33.30;;;20.08;;
84260;SDS011;74405;44.868;18.808;2024-03-08T05:23:34;31.90;;;21.27;;
84260;SDS011;74405;44.868;18.808;2024-03-08T05:26:00;39.50;;;22.00;;
84260;SDS011;74405;44.868;18.808;2024-03-08T05:28:26;38.97;;;22.98;;
84260;SDS011;74405;44.868;18.808;2024-03-08T05:30:51;39.60;;;22.92;;
84260;SDS011;74405;44.868;18.808;2024-03-08T05:33:17;38.30;;;22.25;;
84260;SDS011;74405;44.868;18.808;2024-03-08T05:35:42;39.90;;;22.50;;
84260;SDS011;74405;44.868;18.808;2024-03-08T05:38:08;39.10;;;24.40;;
84260;SDS011;74405;44.868;18.808;2024-03-08T05:40:34;41.22;;;25.75;;
84260;SDS011;74405;44.868;18.808;2024-03-08T05:42:59;45.08;;;26.83;;
84260;SDS011;74405;44.868;18.808;2024-03-08T05:45:25;39.40;;;24.00;;
84260;SDS011;74405;44.868;18.808;2024-03-08T05:47:51;41.20;;;24.38;;
84260;SDS011;74405;44.868;18.808;2024-03-08T05:50:17;38.92;;;24.02;;
84260;SDS011;74405;44.868;18.808;2024-03-08T05:52:42;37.53;;;22.58;;
84260;SDS011;74405;44.868;18.808;2024-03-08T05:55:08;40.83;;;23.67;;
84260;SDS011;74405;44.868;18.808;2024-03-08T05:57:35;37.28;;;21.98;;
84260;SDS011;74405;44.868;18.808;2024-03-08T06:00:03;38.63;;;23.35;;
84260;SDS011;74405;44.868;18.808;2024-03-08T06:02:38;37.08;;;21.48;;
84260;SDS011;74405;44.868;18.808;2024-03-08T06:05:15;37.58;;;23.50;;
84260;SDS011;74405;44.868;18.808;2024-03-08T06:07:40;44.55;;;24.58;;
84260;SDS011;74405;44.868;18.808;2024-03-08T06:10:07;37.90;;;21.42;;
84260;SDS011;74405;44.868;18.808;2024-03-08T06:12:35;35.88;;;20.40;;
84260;SDS011;74405;44.868;18.808;2024-03-08T06:15:05;38.80;;;22.58;;
84260;SDS011;74405;44.868;18.808;2024-03-08T06:17:31;34.72;;;20.90;;
84260;SDS011;74405;44.868;18.808;2024-03-08T06:19:56;34.88;;;20.88;;
84260;SDS011;74405;44.868;18.808;2024-03-08T06:22:22;31.08;;;19.75;;
84260;SDS011;74405;44.868;18.808;2024-03-08T06:24:47;32.10;;;20.45;;
84260;SDS011;74405;44.868;18.808;2024-03-08T06:27:13;32.60;;;21.83;;
84260;SDS011;74405;44.868;18.808;2024-03-08T06:29:39;34.80;;;20.65;;
84260;SDS011;74405;44.868;18.808;2024-03-08T06:32:04;32.40;;;19.02;;
84260;SDS011;74405;44.868;18.808;2024-03-08T06:34:32;33.25;;;20.90;;
84260;SDS011;74405;44.868;18.808;2024-03-08T06:36:58;28.90;;;17.90;;
84260;SDS011;74405;44.868;18.808;2024-03-08T06:39:26;29.40;;;18.38;;
84260;SDS011;74405;44.868;18.808;2024-03-08T06:41:51;31.75;;;20.77;;
84260;SDS011;74405;44.868;18.808;2024-03-08T06:44:17;27.17;;;17.15;;
84260;SDS011;74405;44.868;18.808;2024-03-08T06:46:45;26.10;;;15.95;;
84260;SDS011;74405;44.868;18.808;2024-03-08T06:49:10;20.02;;;14.60;;
84260;SDS011;74405;44.868;18.808;2024-03-08T06:51:36;24.80;;;15.32;;
84260;SDS011;74405;44.868;18.808;2024-03-08T06:54:01;29.42;;;17.80;;
84260;SDS011;74405;44.868;18.808;2024-03-08T06:56:34;26.65;;;17.15;;
84260;SDS011;74405;44.868;18.808;2024-03-08T06:58:59;27.20;;;16.58;;
84260;SDS011;74405;44.868;18.808;2024-03-08T07:01:24;28.90;;;18.55;;
84260;SDS011;74405;44.868;18.808;2024-03-08T07:03:50;36.70;;;22.50;;
84260;SDS011;74405;44.868;18.808;2024-03-08T07:06:18;29.80;;;20.77;;
84260;SDS011;74405;44.868;18.808;2024-03-08T07:08:44;32.70;;;20.10;;
84260;SDS011;74405;44.868;18.808;2024-03-08T07:11:11;28.48;;;16.95;;
84260;SDS011;74405;44.868;18.808;2024-03-08T07:13:37;29.02;;;17.75;;
84260;SDS011;74405;44.868;18.808;2024-03-08T07:16:05;29.95;;;19.05;;
84260;SDS011;74405;44.868;18.808;2024-03-08T07:18:30;32.88;;;18.75;;
84260;SDS011;74405;44.868;18.808;2024-03-08T07:20:56;29.83;;;18.75;;
84260;SDS011;74405;44.868;18.808;2024-03-08T07:23:22;30.33;;;20.40;;
84260;SDS011;74405;44.868;18.808;2024-03-08T07:26:06;33.85;;;20.83;;
84260;SDS011;74405;44.868;18.808;2024-03-08T07:28:32;27.60;;;18.38;;
84260;SDS011;74405;44.868;18.808;2024-03-08T07:30:58;30.38;;;19.83;;
84260;SDS011;74405;44.868;18.808;2024-03-08T07:33:42;34.90;;;21.60;;
84260;SDS011;74405;44.868;18.808;2024-03-08T07:36:08;28.02;;;19.60;;
84260;SDS011;74405;44.868;18.808;2024-03-08T07:38:33;28.27;;;18.10;;
84260;SDS011;74405;44.868;18.808;2024-03-08T07:40:59;28.38;;;19.63;;
84260;SDS011;74405;44.868;18.808;2024-03-08T07:43:25;31.77;;;20.77;;
84260;SDS011;74405;44.868;18.808;2024-03-08T07:45:50;26.63;;;18.67;;
84260;SDS011;74405;44.868;18.808;2024-03-08T07:48:18;31.23;;;20.42;;
84260;SDS011;74405;44.868;18.808;2024-03-08T07:50:43;28.48;;;19.10;;
84260;SDS011;74405;44.868;18.808;2024-03-08T07:53:09;25.23;;;16.50;;
84260;SDS011;74405;44.868;18.808;2024-03-08T07:55:35;26.00;;;16.05;;
84260;SDS011;74405;44.868;18.808;2024-03-08T07:58:01;26.30;;;16.25;;
84260;SDS011;74405;44.868;18.808;2024-03-08T08:00:28;32.30;;;19.80;;
84260;SDS011;74405;44.868;18.808;2024-03-08T08:02:53;25.25;;;16.70;;
84260;SDS011;74405;44.868;18.808;2024-03-08T08:05:19;30.92;;;19.50;;
84260;SDS011;74405;44.868;18.808;2024-03-08T08:07:45;31.70;;;20.65;;
84260;SDS011;74405;44.868;18.808;2024-03-08T08:10:11;30.48;;;19.73;;
84260;SDS011;74405;44.868;18.808;2024-03-08T08:12:43;30.02;;;18.58;;
84260;SDS011;74405;44.868;18.808;2024-03-08T08:15:09;28.58;;;18.20;;
84260;SDS011;74405;44.868;18.808;2024-03-08T08:17:35;27.40;;;18.85;;
84260;SDS011;74405;44.868;18.808;2024-03-08T08:20:00;31.45;;;20.58;;
84260;SDS011;74405;44.868;18.808;2024-03-08T08:22:26;27.60;;;18.08;;
84260;SDS011;74405;44.868;18.808;2024-03-08T08:24:51;31.15;;;19.52;;
84260;SDS011;74405;44.868;18.808;2024-03-08T08:27:17;27.08;;;18.33;;
84260;SDS011;74405;44.868;18.808;2024-03-08T08:29:43;30.67;;;19.00;;
84260;SDS011;74405;44.868;18.808;2024-03-08T08:32:08;28.13;;;17.67;;
84260;SDS011;74405;44.868;18.808;2024-03-08T08:34:36;29.25;;;18.25;;
84260;SDS011;74405;44.868;18.808;2024-03-08T08:37:01;27.23;;;18.27;;
84260;SDS011;74405;44.868;18.808;2024-03-08T08:39:27;25.95;;;17.20;;
84260;SDS011;74405;44.868;18.808;2024-03-08T08:41:53;26.10;;;16.88;;
84260;SDS011;74405;44.868;18.808;2024-03-08T08:44:18;26.65;;;18.02;;
84260;SDS011;74405;44.868;18.808;2024-03-08T08:46:44;27.15;;;17.30;;
84260;SDS011;74405;44.868;18.808;2024-03-08T08:49:09;23.92;;;17.38;;
84260;SDS011;74405;44.868;18.808;2024-03-08T08:51:41;25.92;;;17.33;;
84260;SDS011;74405;44.868;18.808;2024-03-08T08:54:07;29.85;;;18.85;;
84260;SDS011;74405;44.868;18.808;2024-03-08T08:56:33;31.08;;;19.02;;
84260;SDS011;74405;44.868;18.808;2024-03-08T08:58:58;29.60;;;19.00;;
84260;SDS011;74405;44.868;18.808;2024-03-08T09:01:24;28.00;;;18.13;;
84260;SDS011;74405;44.868;18.808;2024-03-08T09:03:49;33.95;;;19.55;;
84260;SDS011;74405;44.868;18.808;2024-03-08T09:06:15;30.92;;;21.20;;
84260;SDS011;74405;44.868;18.808;2024-03-08T09:08:41;32.22;;;20.90;;
84260;SDS011;74405;44.868;18.808;2024-03-08T09:11:07;33.20;;;22.10;;
84260;SDS011;74405;44.868;18.808;2024-03-08T09:13:32;35.80;;;22.80;;
84260;SDS011;74405;44.868;18.808;2024-03-08T09:16:02;35.67;;;23.30;;
84260;SDS011;74405;44.868;18.808;2024-03-08T09:18:28;36.50;;;23.33;;
84260;SDS011;74405;44.868;18.808;2024-03-08T09:20:54;35.10;;;22.58;;
84260;SDS011;74405;44.868;18.808;2024-03-08T09:23:20;35.58;;;22.45;;
84260;SDS011;74405;44.868;18.808;2024-03-08T09:25:45;39.50;;;25.27;;
84260;SDS011;74405;44.868;18.808;2024-03-08T09:28:11;41.13;;;25.90;;
84260;SDS011;74405;44.868;18.808;2024-03-08T09:30:38;40.53;;;26.83;;
84260;SDS011;74405;44.868;18.808;2024-03-08T09:33:05;38.20;;;25.75;;
84260;SDS011;74405;44.868;18.808;2024-03-08T09:35:31;41.95;;;26.25;;
84260;SDS011;74405;44.868;18.808;2024-03-08T09:37:56;38.70;;;26.17;;
84260;SDS011;74405;44.868;18.808;2024-03-08T09:40:22;45.22;;;28.33;;
84260;SDS011;74405;44.868;18.808;2024-03-08T09:42:49;43.00;;;28.42;;
84260;SDS011;74405;44.868;18.808;2024-03-08T09:45:15;40.17;;;26.42;;
84260;SDS011;74405;44.868;18.808;2024-03-08T09:47:42;39.90;;;26.45;;
84260;SDS011;74405;44.868;18.808;2024-03-08T09:50:08;38.05;;;24.67;;
84260;SDS011;74405;44.868;18.808;2024-03-08T09:52:35;37.75;;;25.35;;
84260;SDS011;74405;44.868;18.808;2024-03-08T09:55:01;33.75;;;22.75;;
84260;SDS011;74405;44.868;18.808;2024-03-08T09:57:26;35.60;;;23.60;;
84260;SDS011;74405;44.868;18.808;2024-03-08T09:59:52;37.80;;;24.35;;
84260;SDS011;74405;44.868;18.808;2024-03-08T10:02:18;36.92;;;23.40;;
84260;SDS011;74405;44.868;18.808;2024-03-08T10:04:43;38.05;;;25.00;;
84260;SDS011;74405;44.868;18.808;2024-03-08T10:07:11;36.90;;;24.30;;
84260;SDS011;74405;44.868;18.808;2024-03-08T10:09:37;35.60;;;25.15;;
84260;SDS011;74405;44.868;18.808;2024-03-08T10:12:04;38.28;;;25.15;;
84260;SDS011;74405;44.868;18.808;2024-03-08T10:14:30;36.97;;;24.38;;
84260;SDS011;74405;44.868;18.808;2024-03-08T10:16:56;35.20;;;25.17;;
84260;SDS011;74405;44.868;18.808;2024-03-08T10:19:25;37.85;;;25.48;;
84260;SDS011;74405;44.868;18.808;2024-03-08T10:21:51;40.78;;;27.27;;
84260;SDS011;74405;44.868;18.808;2024-03-08T10:24:19;42.30;;;27.73;;
84260;SDS011;74405;44.868;18.808;2024-03-08T10:26:45;37.63;;;26.50;;
84260;SDS011;74405;44.868;18.808;2024-03-08T10:29:11;40.97;;;27.52;;
84260;SDS011;74405;44.868;18.808;2024-03-08T10:31:42;46.75;;;31.17;;
84260;SDS011;74405;44.868;18.808;2024-03-08T10:34:08;44.03;;;29.58;;
84260;SDS011;74405;44.868;18.808;2024-03-08T10:36:35;49.63;;;31.70;;
84260;SDS011;74405;44.868;18.808;2024-03-08T10:39:00;55.10;;;34.63;;
84260;SDS011;74405;44.868;18.808;2024-03-08T10:41:26;52.08;;;34.75;;
84260;SDS011;74405;44.868;18.808;2024-03-08T10:43:59;46.90;;;30.27;;
84260;SDS011;74405;44.868;18.808;2024-03-08T10:46:43;42.40;;;27.95;;
84260;SDS011;74405;44.868;18.808;2024-03-08T10:49:14;41.67;;;28.02;;
84260;SDS011;74405;44.868;18.808;2024-03-08T10:51:41;36.45;;;23.65;;
84260;SDS011;74405;44.868;18.808;2024-03-08T10:54:07;35.28;;;22.20;;
84260;SDS011;74405;44.868;18.808;2024-03-08T10:56:34;35.33;;;22.83;;
84260;SDS011;74405;44.868;18.808;2024-03-08T10:58:59;28.23;;;19.73;;
84260;SDS011;74405;44.868;18.808;2024-03-08T11:01:25;27.90;;;18.65;;
84260;SDS011;74405;44.868;18.808;2024-03-08T11:03:51;27.98;;;18.88;;
84260;SDS011;74405;44.868;18.808;2024-03-08T11:08:47;25.63;;;17.63;;
84260;SDS011;74405;44.868;18.808;2024-03-08T11:11:28;30.13;;;18.80;;
84260;SDS011;74405;44.868;18.808;2024-03-08T11:13:58;22.98;;;17.10;;
84260;SDS011;74405;44.868;18.808;2024-03-08T11:18:59;23.48;;;16.25;;
84260;SDS011;74405;44.868;18.808;2024-03-08T11:21:31;21.38;;;16.42;;
84260;SDS011;74405;44.868;18.808;2024-03-08T11:24:09;23.15;;;17.60;;
84260;SDS011;74405;44.868;18.808;2024-03-08T11:26:36;22.17;;;16.58;;
84260;SDS011;74405;44.868;18.808;2024-03-08T11:31:46;15.05;;;11.65;;
84260;SDS011;74405;44.868;18.808;2024-03-08T11:34:15;16.38;;;12.93;;
84260;SDS011;74405;44.868;18.808;2024-03-08T11:36:42;14.35;;;12.05;;
84260;SDS011;74405;44.868;18.808;2024-03-08T11:39:07;15.32;;;11.68;;
84260;SDS011;74405;44.868;18.808;2024-03-08T11:41:39;15.52;;;12.32;;
84260;SDS011;74405;44.868;18.808;2024-03-08T11:44:06;19.17;;;13.45;;
84260;SDS011;74405;44.868;18.808;2024-03-08T11:46:32;17.15;;;13.45;;
84260;SDS011;74405;44.868;18.808;2024-03-08T11:48:59;17.33;;;12.25;;
84260;SDS011;74405;44.868;18.808;2024-03-08T11:51:26;15.73;;;12.88;;
84260;SDS011;74405;44.868;18.808;2024-03-08T11:53:52;17.00;;;12.55;;
84260;SDS011;74405;44.868;18.808;2024-03-08T11:56:18;18.10;;;12.55;;
84260;SDS011;74405;44.868;18.808;2024-03-08T11:58:53;15.77;;;12.40;;
84260;SDS011;74405;44.868;18.808;2024-03-08T12:01:19;17.00;;;11.77;;
84260;SDS011;74405;44.868;18.808;2024-03-08T12:03:44;15.57;;;12.18;;
84260;SDS011;74405;44.868;18.808;2024-03-08T12:06:17;16.73;;;12.75;;
84260;SDS011;74405;44.868;18.808;2024-03-08T12:08:43;16.70;;;12.82;;
84260;SDS011;74405;44.868;18.808;2024-03-08T12:11:08;14.63;;;11.88;;
84260;SDS011;74405;44.868;18.808;2024-03-08T12:13:36;18.33;;;12.52;;
84260;SDS011;74405;44.868;18.808;2024-03-08T12:16:04;16.58;;;10.85;;
84260;SDS011;74405;44.868;18.808;2024-03-08T12:18:33;15.18;;;10.85;;
84260;SDS011;74405;44.868;18.808;2024-03-08T12:23:33;15.68;;;12.38;;
84260;SDS011;74405;44.868;18.808;2024-03-08T12:26:08;17.60;;;11.43;;
84260;SDS011;74405;44.868;18.808;2024-03-08T12:28:38;15.88;;;10.85;;
84260;SDS011;74405;44.868;18.808;2024-03-08T12:31:03;14.00;;;10.10;;
84260;SDS011;74405;44.868;18.808;2024-03-08T12:33:54;16.80;;;10.20;;
84260;SDS011;74405;44.868;18.808;2024-03-08T12:36:21;17.08;;;11.32;;
84260;SDS011;74405;44.868;18.808;2024-03-08T12:38:47;17.88;;;12.32;;
84260;SDS011;74405;44.868;18.808;2024-03-08T12:41:16;13.00;;;9.77;;
84260;SDS011;74405;44.868;18.808;2024-03-08T12:43:43;10.73;;;8.65;;
84260;SDS011;74405;44.868;18.808;2024-03-08T12:46:22;11.32;;;9.25;;
84260;SDS011;74405;44.868;18.808;2024-03-08T12:48:51;11.25;;;9.10;;
84260;SDS011;74405;44.868;18.808;2024-03-08T12:51:19;9.65;;;8.40;;
84260;SDS011;74405;44.868;18.808;2024-03-08T12:53:45;11.35;;;9.43;;
84260;SDS011;74405;44.868;18.808;2024-03-08T12:56:16;12.75;;;9.40;;
84260;SDS011;74405;44.868;18.808;2024-03-08T12:58:45;10.60;;;8.55;;
84260;SDS011;74405;44.868;18.808;2024-03-08T13:01:10;11.70;;;8.55;;
84260;SDS011;74405;44.868;18.808;2024-03-08T13:03:37;9.88;;;8.85;;
84260;SDS011;74405;44.868;18.808;2024-03-08T13:06:03;11.10;;;8.95;;
84260;SDS011;74405;44.868;18.808;2024-03-08T13:08:31;12.90;;;9.50;;
84260;SDS011;74405;44.868;18.808;2024-03-08T13:10:56;11.90;;;8.27;;
84260;SDS011;74405;44.868;18.808;2024-03-08T13:13:22;11.70;;;9.48;;
84260;SDS011;74405;44.868;18.808;2024-03-08T13:15:47;14.07;;;9.43;;
84260;SDS011;74405;44.868;18.808;2024-03-08T13:18:14;11.43;;;8.20;;
84260;SDS011;74405;44.868;18.808;2024-03-08T13:20:41;10.98;;;8.63;;
84260;SDS011;74405;44.868;18.808;2024-03-08T13:23:09;12.05;;;9.10;;
84260;SDS011;74405;44.868;18.808;2024-03-08T13:25:34;13.80;;;9.50;;
84260;SDS011;74405;44.868;18.808;2024-03-08T13:28:00;14.10;;;10.25;;
84260;SDS011;74405;44.868;18.808;2024-03-08T13:30:26;14.00;;;9.60;;
84260;SDS011;74405;44.868;18.808;2024-03-08T13:32:55;14.25;;;10.07;;
84260;SDS011;74405;44.868;18.808;2024-03-08T13:35:20;12.82;;;9.68;;
84260;SDS011;74405;44.868;18.808;2024-03-08T13:37:50;12.05;;;8.35;;
84260;SDS011;74405;44.868;18.808;2024-03-08T13:40:16;14.80;;;10.02;;
84260;SDS011;74405;44.868;18.808;2024-03-08T13:42:44;15.05;;;10.23;;
84260;SDS011;74405;44.868;18.808;2024-03-08T13:45:09;13.93;;;11.73;;
84260;SDS011;74405;44.868;18.808;2024-03-08T13:47:39;16.15;;;12.10;;
84260;SDS011;74405;44.868;18.808;2024-03-08T13:50:08;16.30;;;11.55;;
84260;SDS011;74405;44.868;18.808;2024-03-08T13:52:37;13.17;;;9.97;;
84260;SDS011;74405;44.868;18.808;2024-03-08T13:55:03;16.60;;;10.07;;
84260;SDS011;74405;44.868;18.808;2024-03-08T13:57:30;14.38;;;11.25;;
84260;SDS011;74405;44.868;18.808;2024-03-08T13:59:57;14.52;;;10.88;;
84260;SDS011;74405;44.868;18.808;2024-03-08T14:02:22;15.68;;;11.18;;
84260;SDS011;74405;44.868;18.808;2024-03-08T14:04:53;14.85;;;11.27;;
84260;SDS011;74405;44.868;18.808;2024-03-08T14:07:20;16.33;;;12.15;;
84260;SDS011;74405;44.868;18.808;2024-03-08T14:09:46;14.07;;;10.45;;
84260;SDS011;74405;44.868;18.808;2024-03-08T14:12:11;16.63;;;12.85;;
84260;SDS011;74405;44.868;18.808;2024-03-08T14:14:37;16.42;;;12.07;;
84260;SDS011;74405;44.868;18.808;2024-03-08T14:17:02;15.52;;;11.85;;
84260;SDS011;74405;44.868;18.808;2024-03-08T14:19:30;18.85;;;12.57;;